sensor_id;sensor_type;location;lat;lon;timestamp;pressure;altitude;pressure_sealevel;temperature;humidity
8101;BME280;4093;53.470;9.832;2022-09-09T00:01:02;100808.34;;;18.41;96.09
8101;BME280;4093;53.470;9.832;2022-09-09T00:03:37;100814.25;;;18.27;97.13
8101;BME280;4093;53.470;9.832;2022-09-09T00:06:11;100802.91;;;18.09;98.21
8101;BME280;4093;53.470;9.832;2022-09-09T00:08:53;100804.88;;;18.04;98.76
8101;BME280;4093;53.470;9.832;2022-09-09T00:11:27;100809.56;;;18.34;98.09
8101;BME280;4093;53.470;9.832;2022-09-09T00:13:56;100811.44;;;18.49;96.99
8101;BME280;4093;53.470;9.832;2022-09-09T00:16:28;100800.25;;;18.28;98.76
8101;BME280;4093;53.470;9.832;2022-09-09T00:19:02;100809.13;;;18.60;96.89
8101;BME280;4093;53.470;9.832;2022-09-09T00:21:33;100816.00;;;18.80;96.59
8101;BME280;4093;53.470;9.832;2022-09-09T00:24:09;100806.59;;;18.59;97.33
8101;BME280;4093;53.470;9.832;2022-09-09T00:26:42;100803.88;;;18.60;96.63
8101;BME280;4093;53.470;9.832;2022-09-09T00:29:14;100799.56;;;18.59;96.27
8101;BME280;4093;53.470;9.832;2022-09-09T00:31:49;100799.63;;;18.58;96.60
8101;BME280;4093;53.470;9.832;2022-09-09T00:34:20;100791.41;;;18.31;97.64
8101;BME280;4093;53.470;9.832;2022-09-09T00:36:49;100792.47;;;18.44;97.39
8101;BME280;4093;53.470;9.832;2022-09-09T00:39:24;100788.00;;;18.29;98.63
8101;BME280;4093;53.470;9.832;2022-09-09T00:42:00;100782.50;;;18.33;97.88
8101;BME280;4093;53.470;9.832;2022-09-09T00:44:34;100786.56;;;18.40;98.12
8101;BME280;4093;53.470;9.832;2022-09-09T00:47:12;100790.78;;;18.43;97.82
8101;BME280;4093;53.470;9.832;2022-09-09T00:49:56;100790.16;;;18.38;97.08
8101;BME280;4093;53.470;9.832;2022-09-09T00:52:34;100793.06;;;18.32;96.78
8101;BME280;4093;53.470;9.832;2022-09-09T00:55:09;100792.97;;;18.16;96.88
8101;BME280;4093;53.470;9.832;2022-09-09T00:57:40;100783.78;;;18.07;96.67
8101;BME280;4093;53.470;9.832;2022-09-09T01:00:20;100776.38;;;17.60;98.87
8101;BME280;4093;53.470;9.832;2022-09-09T01:02:53;100783.25;;;17.82;98.59
8101;BME280;4093;53.470;9.832;2022-09-09T01:05:29;100792.16;;;17.96;97.39
8101;BME280;4093;53.470;9.832;2022-09-09T01:08:01;100769.97;;;18.05;96.68
8101;BME280;4093;53.470;9.832;2022-09-09T01:10:36;100790.66;;;18.10;96.24
8101;BME280;4093;53.470;9.832;2022-09-09T01:13:12;100785.81;;;18.02;96.15
8101;BME280;4093;53.470;9.832;2022-09-09T01:15:43;100783.41;;;17.78;97.39
8101;BME280;4093;53.470;9.832;2022-09-09T01:18:14;100766.00;;;17.58;97.58
8101;BME280;4093;53.470;9.832;2022-09-09T01:20:47;100784.94;;;17.83;96.92
8101;BME280;4093;53.470;9.832;2022-09-09T01:23:38;100790.41;;;17.78;97.80
8101;BME280;4093;53.470;9.832;2022-09-09T01:26:23;100789.13;;;17.87;97.08
8101;BME280;4093;53.470;9.832;2022-09-09T01:28:51;100787.50;;;17.84;96.46
8101;BME280;4093;53.470;9.832;2022-09-09T01:31:20;100770.94;;;17.27;97.99
8101;BME280;4093;53.470;9.832;2022-09-09T01:33:48;100771.72;;;16.90;99.16
8101;BME280;4093;53.470;9.832;2022-09-09T01:36:19;100767.13;;;17.34;98.21
8101;BME280;4093;53.470;9.832;2022-09-09T01:38:48;100783.53;;;17.75;96.30
8101;BME280;4093;53.470;9.832;2022-09-09T01:41:14;100779.69;;;17.64;95.48
8101;BME280;4093;53.470;9.832;2022-09-09T01:43:42;100769.38;;;17.42;96.21
8101;BME280;4093;53.470;9.832;2022-09-09T01:46:10;100772.91;;;17.60;95.69
8101;BME280;4093;53.470;9.832;2022-09-09T01:48:39;100767.97;;;17.72;94.55
8101;BME280;4093;53.470;9.832;2022-09-09T01:51:07;100763.03;;;17.66;94.13
8101;BME280;4093;53.470;9.832;2022-09-09T01:53:33;100755.59;;;17.57;94.67
8101;BME280;4093;53.470;9.832;2022-09-09T01:56:10;100760.84;;;17.57;93.62
8101;BME280;4093;53.470;9.832;2022-09-09T01:58:52;100758.50;;;17.70;94.16
8101;BME280;4093;53.470;9.832;2022-09-09T02:01:29;100767.81;;;17.75;93.01
8101;BME280;4093;53.470;9.832;2022-09-09T02:04:01;100766.44;;;17.68;92.24
8101;BME280;4093;53.470;9.832;2022-09-09T02:06:33;100740.13;;;17.52;92.60
8101;BME280;4093;53.470;9.832;2022-09-09T02:09:02;100759.06;;;17.57;92.71
8101;BME280;4093;53.470;9.832;2022-09-09T02:11:30;100760.97;;;17.54;92.60
8101;BME280;4093;53.470;9.832;2022-09-09T02:14:01;100767.78;;;17.58;92.64
8101;BME280;4093;53.470;9.832;2022-09-09T02:16:33;100761.91;;;17.53;92.65
8101;BME280;4093;53.470;9.832;2022-09-09T02:19:03;100764.16;;;17.61;91.39
8101;BME280;4093;53.470;9.832;2022-09-09T02:21:33;100749.44;;;17.20;95.16
8101;BME280;4093;53.470;9.832;2022-09-09T02:24:03;100751.72;;;17.28;96.19
8101;BME280;4093;53.470;9.832;2022-09-09T02:26:31;100762.38;;;17.42;95.75
8101;BME280;4093;53.470;9.832;2022-09-09T02:29:03;100758.06;;;17.60;94.25
8101;BME280;4093;53.470;9.832;2022-09-09T02:31:32;100754.38;;;17.64;93.69
8101;BME280;4093;53.470;9.832;2022-09-09T02:34:01;100749.00;;;17.67;93.66
8101;BME280;4093;53.470;9.832;2022-09-09T02:36:32;100754.09;;;17.70;93.41
8101;BME280;4093;53.470;9.832;2022-09-09T02:39:00;100752.28;;;17.72;93.28
8101;BME280;4093;53.470;9.832;2022-09-09T02:41:30;100753.97;;;17.54;93.14
8101;BME280;4093;53.470;9.832;2022-09-09T02:43:58;100752.50;;;17.68;93.29
8101;BME280;4093;53.470;9.832;2022-09-09T02:46:36;100734.75;;;17.18;94.48
8101;BME280;4093;53.470;9.832;2022-09-09T02:49:09;100746.50;;;17.47;94.73
8101;BME280;4093;53.470;9.832;2022-09-09T02:51:40;100741.78;;;17.55;93.87
8101;BME280;4093;53.470;9.832;2022-09-09T02:54:19;100740.69;;;17.59;93.49
8101;BME280;4093;53.470;9.832;2022-09-09T02:56:51;100747.03;;;17.72;92.74
8101;BME280;4093;53.470;9.832;2022-09-09T02:59:19;100738.69;;;17.64;92.85
8101;BME280;4093;53.470;9.832;2022-09-09T03:01:47;100738.22;;;17.37;93.76
8101;BME280;4093;53.470;9.832;2022-09-09T03:04:14;100735.22;;;17.07;95.42
8101;BME280;4093;53.470;9.832;2022-09-09T03:06:40;100738.69;;;17.26;94.50
8101;BME280;4093;53.470;9.832;2022-09-09T03:09:07;100736.97;;;16.87;96.72
8101;BME280;4093;53.470;9.832;2022-09-09T03:11:35;100731.38;;;16.95;96.90
8101;BME280;4093;53.470;9.832;2022-09-09T03:14:03;100739.44;;;17.49;93.92
8101;BME280;4093;53.470;9.832;2022-09-09T03:16:30;100722.47;;;17.39;93.81
8101;BME280;4093;53.470;9.832;2022-09-09T03:18:59;100748.31;;;17.45;93.24
8101;BME280;4093;53.470;9.832;2022-09-09T03:21:26;100746.41;;;17.48;92.89
8101;BME280;4093;53.470;9.832;2022-09-09T03:23:52;100744.22;;;17.39;93.43
8101;BME280;4093;53.470;9.832;2022-09-09T03:26:19;100732.88;;;17.40;93.02
8101;BME280;4093;53.470;9.832;2022-09-09T03:28:45;100734.22;;;17.30;92.93
8101;BME280;4093;53.470;9.832;2022-09-09T03:31:12;100684.44;;;16.73;94.18
8101;BME280;4093;53.470;9.832;2022-09-09T03:33:40;100734.97;;;16.72;97.26
8101;BME280;4093;53.470;9.832;2022-09-09T03:36:08;100742.75;;;16.74;97.59
8101;BME280;4093;53.470;9.832;2022-09-09T03:38:35;100737.00;;;16.45;99.33
8101;BME280;4093;53.470;9.832;2022-09-09T03:41:02;100735.19;;;16.27;99.68
8101;BME280;4093;53.470;9.832;2022-09-09T03:43:31;100736.16;;;16.24;100.00
8101;BME280;4093;53.470;9.832;2022-09-09T03:45:58;100740.00;;;16.36;100.00
8101;BME280;4093;53.470;9.832;2022-09-09T03:48:25;100761.03;;;16.53;100.00
8101;BME280;4093;53.470;9.832;2022-09-09T03:50:53;100748.34;;;16.44;100.00
8101;BME280;4093;53.470;9.832;2022-09-09T03:53:23;100757.56;;;16.53;100.00
8101;BME280;4093;53.470;9.832;2022-09-09T03:55:52;100757.16;;;16.41;99.84
8101;BME280;4093;53.470;9.832;2022-09-09T03:58:20;100762.66;;;16.56;98.98
8101;BME280;4093;53.470;9.832;2022-09-09T04:01:00;100768.13;;;16.50;100.00
8101;BME280;4093;53.470;9.832;2022-09-09T04:03:27;100759.75;;;16.21;100.00
8101;BME280;4093;53.470;9.832;2022-09-09T04:05:55;100765.69;;;16.25;100.00
8101;BME280;4093;53.470;9.832;2022-09-09T04:08:24;100773.28;;;16.31;100.00
8101;BME280;4093;53.470;9.832;2022-09-09T04:10:51;100775.94;;;16.29;100.00
8101;BME280;4093;53.470;9.832;2022-09-09T04:13:18;100783.97;;;16.45;100.00
8101;BME280;4093;53.470;9.832;2022-09-09T04:15:50;100781.94;;;16.31;100.00
8101;BME280;4093;53.470;9.832;2022-09-09T04:18:17;100784.09;;;16.42;100.00
8101;BME280;4093;53.470;9.832;2022-09-09T04:20:45;100793.72;;;16.84;99.02
8101;BME280;4093;53.470;9.832;2022-09-09T04:23:12;100794.19;;;16.72;99.36
8101;BME280;4093;53.470;9.832;2022-09-09T04:25:44;100783.94;;;16.47;99.80
8101;BME280;4093;53.470;9.832;2022-09-09T04:28:12;100772.97;;;16.59;99.60
8101;BME280;4093;53.470;9.832;2022-09-09T04:30:38;100797.97;;;16.86;98.73
8101;BME280;4093;53.470;9.832;2022-09-09T04:33:05;100801.22;;;16.92;98.11
8101;BME280;4093;53.470;9.832;2022-09-09T04:35:32;100773.34;;;16.70;98.29
8101;BME280;4093;53.470;9.832;2022-09-09T04:37:59;100801.09;;;16.73;99.18
8101;BME280;4093;53.470;9.832;2022-09-09T04:40:28;100794.72;;;16.59;100.00
8101;BME280;4093;53.470;9.832;2022-09-09T04:42:57;100800.41;;;16.69;100.00
8101;BME280;4093;53.470;9.832;2022-09-09T04:45:24;100790.19;;;16.42;100.00
8101;BME280;4093;53.470;9.832;2022-09-09T04:47:51;100801.16;;;16.51;100.00
8101;BME280;4093;53.470;9.832;2022-09-09T04:50:17;100800.41;;;16.69;99.29
8101;BME280;4093;53.470;9.832;2022-09-09T04:52:44;100807.19;;;16.73;99.87
8101;BME280;4093;53.470;9.832;2022-09-09T04:55:10;100807.28;;;16.50;99.75
8101;BME280;4093;53.470;9.832;2022-09-09T04:57:38;100808.63;;;16.38;100.00
8101;BME280;4093;53.470;9.832;2022-09-09T05:00:07;100800.22;;;16.31;100.00
8101;BME280;4093;53.470;9.832;2022-09-09T05:02:37;100801.69;;;16.59;99.80
8101;BME280;4093;53.470;9.832;2022-09-09T05:05:04;100812.50;;;16.50;100.00
8101;BME280;4093;53.470;9.832;2022-09-09T05:07:30;100805.13;;;16.39;100.00
8101;BME280;4093;53.470;9.832;2022-09-09T05:09:57;100814.41;;;16.66;100.00
8101;BME280;4093;53.470;9.832;2022-09-09T05:12:24;100801.28;;;16.48;100.00
8101;BME280;4093;53.470;9.832;2022-09-09T05:14:52;100804.69;;;16.50;100.00
8101;BME280;4093;53.470;9.832;2022-09-09T05:17:20;100822.13;;;16.70;99.75
8101;BME280;4093;53.470;9.832;2022-09-09T05:19:46;100818.41;;;16.55;99.30
8101;BME280;4093;53.470;9.832;2022-09-09T05:22:18;100805.88;;;16.63;99.24
8101;BME280;4093;53.470;9.832;2022-09-09T05:24:45;100826.22;;;16.77;99.26
8101;BME280;4093;53.470;9.832;2022-09-09T05:27:11;100830.72;;;16.51;100.00
8101;BME280;4093;53.470;9.832;2022-09-09T05:29:38;100826.63;;;16.66;100.00
8101;BME280;4093;53.470;9.832;2022-09-09T05:32:06;100836.34;;;16.84;100.00
8101;BME280;4093;53.470;9.832;2022-09-09T05:34:34;100833.69;;;16.64;100.00
8101;BME280;4093;53.470;9.832;2022-09-09T05:37:03;100839.09;;;16.81;100.00
8101;BME280;4093;53.470;9.832;2022-09-09T05:39:29;100851.34;;;17.20;98.43
8101;BME280;4093;53.470;9.832;2022-09-09T05:41:56;100843.25;;;16.85;100.00
8101;BME280;4093;53.470;9.832;2022-09-09T05:44:22;100843.13;;;16.88;99.72
8101;BME280;4093;53.470;9.832;2022-09-09T05:46:52;100865.09;;;17.25;99.10
8101;BME280;4093;53.470;9.832;2022-09-09T05:49:19;100852.59;;;16.91;100.00
8101;BME280;4093;53.470;9.832;2022-09-09T05:51:48;100856.00;;;16.93;100.00
8101;BME280;4093;53.470;9.832;2022-09-09T05:54:15;100855.28;;;17.10;99.56
8101;BME280;4093;53.470;9.832;2022-09-09T05:56:42;100854.97;;;16.77;100.00
8101;BME280;4093;53.470;9.832;2022-09-09T05:59:09;100858.63;;;16.93;99.53
8101;BME280;4093;53.470;9.832;2022-09-09T06:01:36;100870.72;;;16.96;100.00
8101;BME280;4093;53.470;9.832;2022-09-09T06:04:05;100864.09;;;17.07;100.00
8101;BME280;4093;53.470;9.832;2022-09-09T06:06:33;100880.75;;;17.25;99.31
8101;BME280;4093;53.470;9.832;2022-09-09T06:09:04;100873.44;;;17.13;99.37
8101;BME280;4093;53.470;9.832;2022-09-09T06:11:32;100866.38;;;16.95;99.79
8101;BME280;4093;53.470;9.832;2022-09-09T06:14:02;100889.13;;;17.13;100.00
8101;BME280;4093;53.470;9.832;2022-09-09T06:16:30;100878.94;;;17.27;99.03
8101;BME280;4093;53.470;9.832;2022-09-09T06:18:58;100892.66;;;17.32;98.66
8101;BME280;4093;53.470;9.832;2022-09-09T06:21:26;100882.47;;;17.06;99.28
8101;BME280;4093;53.470;9.832;2022-09-09T06:23:53;100885.66;;;17.13;100.00
8101;BME280;4093;53.470;9.832;2022-09-09T06:26:22;100889.28;;;17.30;98.77
8101;BME280;4093;53.470;9.832;2022-09-09T06:28:52;100887.47;;;17.51;97.54
8101;BME280;4093;53.470;9.832;2022-09-09T06:31:20;100877.63;;;17.38;99.15
8101;BME280;4093;53.470;9.832;2022-09-09T06:33:48;100883.31;;;17.27;99.68
8101;BME280;4093;53.470;9.832;2022-09-09T06:36:17;100886.13;;;17.22;99.77
8101;BME280;4093;53.470;9.832;2022-09-09T06:38:44;100883.19;;;17.30;99.49
8101;BME280;4093;53.470;9.832;2022-09-09T06:41:12;100883.88;;;17.54;98.13
8101;BME280;4093;53.470;9.832;2022-09-09T06:43:40;100877.75;;;17.34;98.63
8101;BME280;4093;53.470;9.832;2022-09-09T06:46:10;100873.31;;;17.16;99.62
8101;BME280;4093;53.470;9.832;2022-09-09T06:48:38;100883.75;;;17.57;99.36
8101;BME280;4093;53.470;9.832;2022-09-09T06:51:07;100883.03;;;17.53;98.98
8101;BME280;4093;53.470;9.832;2022-09-09T06:53:35;100890.34;;;18.05;96.09
8101;BME280;4093;53.470;9.832;2022-09-09T06:56:17;100882.25;;;17.91;96.49
8101;BME280;4093;53.470;9.832;2022-09-09T06:58:46;100879.78;;;17.67;97.48
8101;BME280;4093;53.470;9.832;2022-09-09T07:01:16;100873.28;;;17.57;97.60
8101;BME280;4093;53.470;9.832;2022-09-09T07:03:46;100879.28;;;17.59;98.88
8101;BME280;4093;53.470;9.832;2022-09-09T07:06:14;100889.25;;;18.09;96.23
8101;BME280;4093;53.470;9.832;2022-09-09T07:08:42;100873.28;;;17.57;98.98
8101;BME280;4093;53.470;9.832;2022-09-09T07:11:09;100880.56;;;17.69;97.31
8101;BME280;4093;53.470;9.832;2022-09-09T07:13:36;100903.41;;;18.43;95.74
8101;BME280;4093;53.470;9.832;2022-09-09T07:16:05;100886.84;;;18.23;95.82
8101;BME280;4093;53.470;9.832;2022-09-09T07:18:32;100896.38;;;18.80;93.27
8101;BME280;4093;53.470;9.832;2022-09-09T07:21:00;100875.94;;;18.33;94.32
8101;BME280;4093;53.470;9.832;2022-09-09T07:23:27;100872.03;;;18.41;94.00
8101;BME280;4093;53.470;9.832;2022-09-09T07:25:54;100870.16;;;18.07;95.88
8101;BME280;4093;53.470;9.832;2022-09-09T07:28:20;100873.84;;;18.39;94.75
8101;BME280;4093;53.470;9.832;2022-09-09T07:30:53;100863.56;;;18.17;95.19
8101;BME280;4093;53.470;9.832;2022-09-09T07:33:22;100875.06;;;18.51;94.72
8101;BME280;4093;53.470;9.832;2022-09-09T07:35:49;100877.97;;;18.99;92.43
8101;BME280;4093;53.470;9.832;2022-09-09T07:38:16;100874.66;;;18.78;92.82
8101;BME280;4093;53.470;9.832;2022-09-09T07:40:44;100879.38;;;18.52;93.78
8101;BME280;4093;53.470;9.832;2022-09-09T07:43:10;100884.25;;;18.96;92.97
8101;BME280;4093;53.470;9.832;2022-09-09T07:45:37;100889.16;;;19.37;91.16
8101;BME280;4093;53.470;9.832;2022-09-09T07:48:05;100896.38;;;19.82;89.96
8101;BME280;4093;53.470;9.832;2022-09-09T07:50:33;100887.78;;;19.96;88.13
8101;BME280;4093;53.470;9.832;2022-09-09T07:53:00;100891.66;;;20.37;87.03
8101;BME280;4093;53.470;9.832;2022-09-09T07:55:27;100891.66;;;20.21;87.03
8101;BME280;4093;53.470;9.832;2022-09-09T07:57:55;100859.97;;;20.24;86.29
8101;BME280;4093;53.470;9.832;2022-09-09T08:00:22;100866.91;;;19.77;87.44
8101;BME280;4093;53.470;9.832;2022-09-09T08:02:49;100885.16;;;20.44;86.16
8101;BME280;4093;53.470;9.832;2022-09-09T08:05:15;100886.72;;;20.78;82.92
8101;BME280;4093;53.470;9.832;2022-09-09T08:07:43;100892.44;;;21.45;82.01
8101;BME280;4093;53.470;9.832;2022-09-09T08:10:11;100886.41;;;21.57;81.13
8101;BME280;4093;53.470;9.832;2022-09-09T08:12:39;100872.19;;;21.31;80.94
8101;BME280;4093;53.470;9.832;2022-09-09T08:15:06;100875.69;;;21.01;82.31
8101;BME280;4093;53.470;9.832;2022-09-09T08:17:33;100865.38;;;20.68;83.74
8101;BME280;4093;53.470;9.832;2022-09-09T08:20:00;100889.16;;;21.11;82.86
8101;BME280;4093;53.470;9.832;2022-09-09T08:22:30;100845.56;;;19.99;86.06
8101;BME280;4093;53.470;9.832;2022-09-09T08:24:58;100857.53;;;20.21;84.41
8101;BME280;4093;53.470;9.832;2022-09-09T08:27:25;100862.19;;;20.31;85.38
8101;BME280;4093;53.470;9.832;2022-09-09T08:29:52;100870.06;;;20.47;85.52
8101;BME280;4093;53.470;9.832;2022-09-09T08:32:18;100864.88;;;20.62;84.43
8101;BME280;4093;53.470;9.832;2022-09-09T08:34:45;100862.47;;;20.73;83.95
8101;BME280;4093;53.470;9.832;2022-09-09T08:37:11;100865.16;;;20.25;85.97
8101;BME280;4093;53.470;9.832;2022-09-09T08:39:38;100883.41;;;21.05;84.30
8101;BME280;4093;53.470;9.832;2022-09-09T08:42:27;100866.06;;;20.86;84.33
8101;BME280;4093;53.470;9.832;2022-09-09T08:45:16;100880.81;;;21.33;82.84
8101;BME280;4093;53.470;9.832;2022-09-09T08:47:54;100894.25;;;22.14;80.50
8101;BME280;4093;53.470;9.832;2022-09-09T08:50:25;100880.91;;;22.32;79.09
8101;BME280;4093;53.470;9.832;2022-09-09T08:52:57;100892.28;;;22.99;77.62
8101;BME280;4093;53.470;9.832;2022-09-09T08:55:35;100848.78;;;21.12;81.44
8101;BME280;4093;53.470;9.832;2022-09-09T08:58:11;100859.22;;;21.28;81.05
8101;BME280;4093;53.470;9.832;2022-09-09T09:00:44;100869.22;;;21.66;78.51
8101;BME280;4093;53.470;9.832;2022-09-09T09:03:22;100861.34;;;21.37;81.08
8101;BME280;4093;53.470;9.832;2022-09-09T09:05:57;100883.91;;;22.53;77.38
8101;BME280;4093;53.470;9.832;2022-09-09T09:08:29;100876.16;;;23.04;76.34
8101;BME280;4093;53.470;9.832;2022-09-09T09:10:59;100853.97;;;22.54;74.52
8101;BME280;4093;53.470;9.832;2022-09-09T09:13:34;100843.00;;;22.20;75.73
8101;BME280;4093;53.470;9.832;2022-09-09T09:16:13;100859.72;;;22.73;75.97
8101;BME280;4093;53.470;9.832;2022-09-09T09:18:43;100858.66;;;22.63;75.14
8101;BME280;4093;53.470;9.832;2022-09-09T09:21:12;100841.31;;;22.05;76.88
8101;BME280;4093;53.470;9.832;2022-09-09T09:23:43;100834.38;;;21.89;77.49
8101;BME280;4093;53.470;9.832;2022-09-09T09:26:11;100848.28;;;22.20;77.76
8101;BME280;4093;53.470;9.832;2022-09-09T09:28:40;100844.13;;;21.60;77.37
8101;BME280;4093;53.470;9.832;2022-09-09T09:31:09;100854.69;;;22.16;77.64
8101;BME280;4093;53.470;9.832;2022-09-09T09:33:44;100865.19;;;23.10;74.00
8101;BME280;4093;53.470;9.832;2022-09-09T09:36:13;100863.28;;;23.38;73.91
8101;BME280;4093;53.470;9.832;2022-09-09T09:38:52;100867.13;;;23.96;71.34
8101;BME280;4093;53.470;9.832;2022-09-09T09:41:29;100856.78;;;24.30;68.87
8101;BME280;4093;53.470;9.832;2022-09-09T09:43:57;100843.84;;;23.64;70.57
8101;BME280;4093;53.470;9.832;2022-09-09T09:46:24;100807.47;;;22.66;70.96
8101;BME280;4093;53.470;9.832;2022-09-09T09:48:58;100830.06;;;22.57;72.94
8101;BME280;4093;53.470;9.832;2022-09-09T09:51:26;100828.47;;;21.71;74.11
8101;BME280;4093;53.470;9.832;2022-09-09T09:53:53;100841.75;;;22.11;74.40
8101;BME280;4093;53.470;9.832;2022-09-09T09:56:27;100833.94;;;22.24;73.59
8101;BME280;4093;53.470;9.832;2022-09-09T09:58:56;100848.31;;;23.25;72.79
8101;BME280;4093;53.470;9.832;2022-09-09T10:01:26;100837.41;;;23.55;70.11
8101;BME280;4093;53.470;9.832;2022-09-09T10:03:54;100839.00;;;23.71;69.87
8101;BME280;4093;53.470;9.832;2022-09-09T10:06:30;100838.19;;;24.18;68.47
8101;BME280;4093;53.470;9.832;2022-09-09T10:08:59;100828.69;;;23.92;67.15
8101;BME280;4093;53.470;9.832;2022-09-09T10:11:35;100827.59;;;24.07;68.46
8101;BME280;4093;53.470;9.832;2022-09-09T10:14:15;100818.41;;;23.38;69.01
8101;BME280;4093;53.470;9.832;2022-09-09T10:16:55;100818.16;;;24.03;67.48
8101;BME280;4093;53.470;9.832;2022-09-09T10:19:30;100825.66;;;24.33;69.58
8101;BME280;4093;53.470;9.832;2022-09-09T10:22:16;100808.16;;;22.82;70.24
8101;BME280;4093;53.470;9.832;2022-09-09T10:25:09;100820.81;;;23.66;70.72
8101;BME280;4093;53.470;9.832;2022-09-09T10:27:48;100810.28;;;23.53;68.19
8101;BME280;4093;53.470;9.832;2022-09-09T10:30:18;100806.28;;;23.48;69.45
8101;BME280;4093;53.470;9.832;2022-09-09T10:32:48;100803.56;;;22.58;71.49
8101;BME280;4093;53.470;9.832;2022-09-09T10:35:29;100799.25;;;22.97;71.40
8101;BME280;4093;53.470;9.832;2022-09-09T10:38:10;100811.09;;;22.90;72.06
8101;BME280;4093;53.470;9.832;2022-09-09T10:40:43;100805.88;;;23.16;71.40
8101;BME280;4093;53.470;9.832;2022-09-09T10:43:22;100804.31;;;23.13;71.90
8101;BME280;4093;53.470;9.832;2022-09-09T10:46:00;100801.59;;;22.87;74.38
8101;BME280;4093;53.470;9.832;2022-09-09T10:48:42;100810.47;;;23.63;73.41
8101;BME280;4093;53.470;9.832;2022-09-09T10:51:23;100804.38;;;23.24;71.58
8101;BME280;4093;53.470;9.832;2022-09-09T10:53:58;100802.34;;;23.41;72.02
8101;BME280;4093;53.470;9.832;2022-09-09T10:56:29;100805.03;;;23.02;74.33
8101;BME280;4093;53.470;9.832;2022-09-09T10:59:00;100808.72;;;23.13;73.78
8101;BME280;4093;53.470;9.832;2022-09-09T11:01:34;100822.63;;;23.78;71.45
8101;BME280;4093;53.470;9.832;2022-09-09T11:04:10;100805.00;;;23.90;70.37
8101;BME280;4093;53.470;9.832;2022-09-09T11:06:42;100800.88;;;23.99;69.88
8101;BME280;4093;53.470;9.832;2022-09-09T11:09:15;100796.25;;;23.27;70.10
8101;BME280;4093;53.470;9.832;2022-09-09T11:11:48;100795.31;;;23.28;70.45
8101;BME280;4093;53.470;9.832;2022-09-09T11:14:21;100808.88;;;23.73;69.53
8101;BME280;4093;53.470;9.832;2022-09-09T11:16:53;100806.44;;;24.55;66.86
8101;BME280;4093;53.470;9.832;2022-09-09T11:19:28;100795.75;;;23.35;68.21
8101;BME280;4093;53.470;9.832;2022-09-09T11:22:00;100797.81;;;23.43;68.21
8101;BME280;4093;53.470;9.832;2022-09-09T11:24:33;100796.25;;;23.90;67.04
8101;BME280;4093;53.470;9.832;2022-09-09T11:27:04;100791.84;;;23.77;68.85
8101;BME280;4093;53.470;9.832;2022-09-09T11:30:02;100794.00;;;23.47;69.81
8101;BME280;4093;53.470;9.832;2022-09-09T11:33:00;100798.66;;;23.93;67.46
8101;BME280;4093;53.470;9.832;2022-09-09T11:35:38;100798.41;;;23.22;68.74
8101;BME280;4093;53.470;9.832;2022-09-09T11:38:16;100803.53;;;23.37;69.02
8101;BME280;4093;53.470;9.832;2022-09-09T11:40:46;100812.16;;;24.25;68.35
8101;BME280;4093;53.470;9.832;2022-09-09T11:43:14;100809.41;;;24.27;67.58
8101;BME280;4093;53.470;9.832;2022-09-09T11:45:43;100819.03;;;25.09;66.78
8101;BME280;4093;53.470;9.832;2022-09-09T11:48:27;100799.72;;;23.41;69.36
8101;BME280;4093;53.470;9.832;2022-09-09T11:51:00;100819.88;;;24.04;68.62
8101;BME280;4093;53.470;9.832;2022-09-09T11:53:28;100786.97;;;24.32;67.13
8101;BME280;4093;53.470;9.832;2022-09-09T11:56:02;100806.31;;;24.33;66.83
8101;BME280;4093;53.470;9.832;2022-09-09T11:58:35;100811.72;;;24.07;67.74
8101;BME280;4093;53.470;9.832;2022-09-09T12:01:13;100802.91;;;24.43;67.46
8101;BME280;4093;53.470;9.832;2022-09-09T12:03:45;100799.19;;;24.46;64.75
8101;BME280;4093;53.470;9.832;2022-09-09T12:06:15;100793.16;;;24.90;64.63
8101;BME280;4093;53.470;9.832;2022-09-09T12:08:46;100787.31;;;25.54;62.65
8101;BME280;4093;53.470;9.832;2022-09-09T12:11:24;100794.53;;;25.41;63.58
8101;BME280;4093;53.470;9.832;2022-09-09T12:13:55;100787.22;;;25.45;63.36
8101;BME280;4093;53.470;9.832;2022-09-09T12:16:30;100775.34;;;24.70;62.31
8101;BME280;4093;53.470;9.832;2022-09-09T12:19:06;100783.72;;;23.81;66.85
8101;BME280;4093;53.470;9.832;2022-09-09T12:21:36;100789.66;;;24.90;63.89
8101;BME280;4093;53.470;9.832;2022-09-09T12:24:07;100797.47;;;24.80;64.73
8101;BME280;4093;53.470;9.832;2022-09-09T12:26:38;100802.72;;;24.10;66.24
8101;BME280;4093;53.470;9.832;2022-09-09T12:29:16;100801.13;;;23.83;66.36
8101;BME280;4093;53.470;9.832;2022-09-09T12:31:51;100796.88;;;23.93;65.80
8101;BME280;4093;53.470;9.832;2022-09-09T12:34:31;100803.09;;;24.40;64.45
8101;BME280;4093;53.470;9.832;2022-09-09T12:37:04;100801.38;;;24.04;66.34
8101;BME280;4093;53.470;9.832;2022-09-09T12:39:35;100798.38;;;23.85;66.50
8101;BME280;4093;53.470;9.832;2022-09-09T12:42:03;100802.16;;;23.69;65.91
8101;BME280;4093;53.470;9.832;2022-09-09T12:44:30;100801.22;;;23.45;67.92
8101;BME280;4093;53.470;9.832;2022-09-09T12:46:59;100819.22;;;23.76;67.78
8101;BME280;4093;53.470;9.832;2022-09-09T12:49:31;100809.47;;;23.02;68.73
8101;BME280;4093;53.470;9.832;2022-09-09T12:52:02;100812.31;;;22.99;70.33
8101;BME280;4093;53.470;9.832;2022-09-09T12:54:30;100825.91;;;23.44;69.13
8101;BME280;4093;53.470;9.832;2022-09-09T12:56:57;100832.56;;;23.24;69.19
8101;BME280;4093;53.470;9.832;2022-09-09T12:59:25;100846.00;;;22.68;71.20
8101;BME280;4093;53.470;9.832;2022-09-09T13:01:55;100860.06;;;22.81;71.70
8101;BME280;4093;53.470;9.832;2022-09-09T13:04:22;100851.59;;;21.81;74.84
8101;BME280;4093;53.470;9.832;2022-09-09T13:06:50;100863.78;;;21.69;71.58
8101;BME280;4093;53.470;9.832;2022-09-09T13:09:18;100862.00;;;20.50;74.76
8101;BME280;4093;53.470;9.832;2022-09-09T13:11:48;100861.16;;;20.66;73.24
8101;BME280;4093;53.470;9.832;2022-09-09T13:14:18;100862.31;;;20.76;74.21
8101;BME280;4093;53.470;9.832;2022-09-09T13:16:55;100854.78;;;20.70;75.11
8101;BME280;4093;53.470;9.832;2022-09-09T13:19:22;100851.25;;;20.23;77.09
8101;BME280;4093;53.470;9.832;2022-09-09T13:21:54;100862.78;;;20.21;78.59
8101;BME280;4093;53.470;9.832;2022-09-09T13:24:27;100864.91;;;20.14;80.63
8101;BME280;4093;53.470;9.832;2022-09-09T13:26:55;100876.31;;;20.61;80.07
8101;BME280;4093;53.470;9.832;2022-09-09T13:29:22;100886.19;;;20.87;80.55